sensor_id;sensor_type;location;lat;lon;timestamp;P1;durP1;ratioP1;P2;durP2;ratioP2
59938;SDS011;45801;51.810;19.444;2023-12-28T00:01:40;17.70;;;9.80;;
59938;SDS011;45801;51.810;19.444;2023-12-28T00:04:07;19.20;;;9.70;;
59938;SDS011;45801;51.810;19.444;2023-12-28T00:06:33;19.60;;;10.60;;
59938;SDS011;45801;51.810;19.444;2023-12-28T00:09:00;21.60;;;11.10;;
59938;SDS011;45801;51.810;19.444;2023-12-28T00:11:27;20.90;;;11.10;;
59938;SDS011;45801;51.810;19.444;2023-12-28T00:13:53;21.20;;;11.40;;
59938;SDS011;45801;51.810;19.444;2023-12-28T00:16:20;25.20;;;12.30;;
59938;SDS011;45801;51.810;19.444;2023-12-28T00:18:47;20.50;;;11.70;;
59938;SDS011;45801;51.810;19.444;2023-12-28T00:21:14;22.60;;;12.10;;
59938;SDS011;45801;51.810;19.444;2023-12-28T00:23:41;24.90;;;13.30;;
59938;SDS011;45801;51.810;19.444;2023-12-28T00:26:08;22.30;;;12.80;;
59938;SDS011;45801;51.810;19.444;2023-12-28T00:28:38;23.50;;;12.60;;
59938;SDS011;45801;51.810;19.444;2023-12-28T00:31:04;21.90;;;13.60;;
59938;SDS011;45801;51.810;19.444;2023-12-28T00:33:31;25.70;;;14.20;;
59938;SDS011;45801;51.810;19.444;2023-12-28T00:35:57;20.90;;;12.30;;
59938;SDS011;45801;51.810;19.444;2023-12-28T00:38:24;23.80;;;12.30;;
59938;SDS011;45801;51.810;19.444;2023-12-28T00:40:51;26.00;;;14.00;;
59938;SDS011;45801;51.810;19.444;2023-12-28T00:43:17;24.50;;;13.30;;
59938;SDS011;45801;51.810;19.444;2023-12-28T00:45:44;22.10;;;12.80;;
59938;SDS011;45801;51.810;19.444;2023-12-28T00:48:11;24.80;;;13.90;;
59938;SDS011;45801;51.810;19.444;2023-12-28T00:50:38;25.00;;;13.50;;
59938;SDS011;45801;51.810;19.444;2023-12-28T00:53:04;24.90;;;13.40;;
59938;SDS011;45801;51.810;19.444;2023-12-28T00:55:32;24.60;;;14.00;;
59938;SDS011;45801;51.810;19.444;2023-12-28T00:58:00;24.00;;;14.20;;
59938;SDS011;45801;51.810;19.444;2023-12-28T01:00:26;24.10;;;13.00;;
59938;SDS011;45801;51.810;19.444;2023-12-28T01:02:53;24.50;;;14.40;;
59938;SDS011;45801;51.810;19.444;2023-12-28T01:05:22;27.70;;;16.30;;
59938;SDS011;45801;51.810;19.444;2023-12-28T01:07:48;25.10;;;15.90;;
59938;SDS011;45801;51.810;19.444;2023-12-28T01:10:15;24.70;;;15.70;;
59938;SDS011;45801;51.810;19.444;2023-12-28T01:12:41;26.70;;;14.80;;
59938;SDS011;45801;51.810;19.444;2023-12-28T01:15:08;27.60;;;15.80;;
59938;SDS011;45801;51.810;19.444;2023-12-28T01:17:35;25.40;;;13.80;;
59938;SDS011;45801;51.810;19.444;2023-12-28T01:20:02;27.30;;;14.40;;
59938;SDS011;45801;51.810;19.444;2023-12-28T01:22:28;25.80;;;14.30;;
59938;SDS011;45801;51.810;19.444;2023-12-28T01:24:55;26.20;;;15.00;;
59938;SDS011;45801;51.810;19.444;2023-12-28T01:27:21;26.80;;;15.20;;
59938;SDS011;45801;51.810;19.444;2023-12-28T01:29:48;27.20;;;15.80;;
59938;SDS011;45801;51.810;19.444;2023-12-28T01:32:14;25.50;;;14.40;;
59938;SDS011;45801;51.810;19.444;2023-12-28T01:34:41;24.70;;;15.00;;
59938;SDS011;45801;51.810;19.444;2023-12-28T01:37:08;28.00;;;15.10;;
59938;SDS011;45801;51.810;19.444;2023-12-28T01:39:35;26.10;;;13.70;;
59938;SDS011;45801;51.810;19.444;2023-12-28T01:42:03;23.20;;;13.30;;
59938;SDS011;45801;51.810;19.444;2023-12-28T01:44:30;24.00;;;12.70;;
59938;SDS011;45801;51.810;19.444;2023-12-28T01:46:57;21.60;;;12.60;;
59938;SDS011;45801;51.810;19.444;2023-12-28T01:49:24;24.90;;;13.80;;
59938;SDS011;45801;51.810;19.444;2023-12-28T01:51:51;24.00;;;13.20;;
59938;SDS011;45801;51.810;19.444;2023-12-28T01:54:18;20.10;;;12.40;;
59938;SDS011;45801;51.810;19.444;2023-12-28T01:56:44;22.60;;;12.90;;
59938;SDS011;45801;51.810;19.444;2023-12-28T01:59:11;26.40;;;13.20;;
59938;SDS011;45801;51.810;19.444;2023-12-28T02:01:38;18.80;;;11.80;;
59938;SDS011;45801;51.810;19.444;2023-12-28T02:04:04;23.50;;;12.10;;
59938;SDS011;45801;51.810;19.444;2023-12-28T02:06:32;23.50;;;12.80;;
59938;SDS011;45801;51.810;19.444;2023-12-28T02:08:59;23.30;;;12.70;;
59938;SDS011;45801;51.810;19.444;2023-12-28T02:11:25;21.00;;;11.80;;
59938;SDS011;45801;51.810;19.444;2023-12-28T02:13:52;22.10;;;12.80;;
59938;SDS011;45801;51.810;19.444;2023-12-28T02:16:36;23.50;;;13.20;;
59938;SDS011;45801;51.810;19.444;2023-12-28T02:22:08;21.30;;;12.20;;
59938;SDS011;45801;51.810;19.444;2023-12-28T02:27:35;22.00;;;11.80;;
59938;SDS011;45801;51.810;19.444;2023-12-28T02:30:05;21.10;;;12.40;;
59938;SDS011;45801;51.810;19.444;2023-12-28T02:32:44;22.50;;;11.80;;
59938;SDS011;45801;51.810;19.444;2023-12-28T02:35:37;20.50;;;11.90;;
59938;SDS011;45801;51.810;19.444;2023-12-28T02:38:14;23.60;;;12.20;;
59938;SDS011;45801;51.810;19.444;2023-12-28T02:40:43;19.30;;;11.10;;
59938;SDS011;45801;51.810;19.444;2023-12-28T02:43:11;20.10;;;11.50;;
59938;SDS011;45801;51.810;19.444;2023-12-28T02:45:38;23.70;;;13.10;;
59938;SDS011;45801;51.810;19.444;2023-12-28T02:48:05;20.80;;;12.00;;
59938;SDS011;45801;51.810;19.444;2023-12-28T02:50:33;21.70;;;11.70;;
59938;SDS011;45801;51.810;19.444;2023-12-28T02:53:00;20.90;;;11.10;;
59938;SDS011;45801;51.810;19.444;2023-12-28T02:55:27;20.60;;;11.30;;
59938;SDS011;45801;51.810;19.444;2023-12-28T02:57:55;18.80;;;11.30;;
59938;SDS011;45801;51.810;19.444;2023-12-28T03:00:23;22.40;;;12.00;;
59938;SDS011;45801;51.810;19.444;2023-12-28T03:02:49;22.60;;;11.60;;
59938;SDS011;45801;51.810;19.444;2023-12-28T03:05:16;21.20;;;12.20;;
59938;SDS011;45801;51.810;19.444;2023-12-28T03:07:43;22.10;;;12.10;;
59938;SDS011;45801;51.810;19.444;2023-12-28T03:10:10;23.80;;;13.10;;
59938;SDS011;45801;51.810;19.444;2023-12-28T03:12:39;22.40;;;12.60;;
59938;SDS011;45801;51.810;19.444;2023-12-28T03:15:07;20.40;;;11.00;;
59938;SDS011;45801;51.810;19.444;2023-12-28T03:17:33;20.70;;;11.90;;
59938;SDS011;45801;51.810;19.444;2023-12-28T03:20:01;19.70;;;11.40;;
59938;SDS011;45801;51.810;19.444;2023-12-28T03:22:29;20.10;;;10.30;;
59938;SDS011;45801;51.810;19.444;2023-12-28T03:24:55;20.40;;;11.10;;
59938;SDS011;45801;51.810;19.444;2023-12-28T03:27:22;23.30;;;11.90;;
59938;SDS011;45801;51.810;19.444;2023-12-28T03:29:48;21.60;;;12.30;;
59938;SDS011;45801;51.810;19.444;2023-12-28T03:32:15;24.50;;;12.00;;
59938;SDS011;45801;51.810;19.444;2023-12-28T03:34:42;24.10;;;13.30;;
59938;SDS011;45801;51.810;19.444;2023-12-28T03:37:08;26.50;;;13.80;;
59938;SDS011;45801;51.810;19.444;2023-12-28T03:39:37;20.90;;;12.00;;
59938;SDS011;45801;51.810;19.444;2023-12-28T03:42:04;23.40;;;13.00;;
59938;SDS011;45801;51.810;19.444;2023-12-28T03:44:30;21.80;;;11.50;;
59938;SDS011;45801;51.810;19.444;2023-12-28T03:46:57;22.00;;;12.70;;
59938;SDS011;45801;51.810;19.444;2023-12-28T03:49:24;22.20;;;11.40;;
59938;SDS011;45801;51.810;19.444;2023-12-28T03:51:51;22.70;;;12.20;;
59938;SDS011;45801;51.810;19.444;2023-12-28T03:54:18;24.30;;;11.80;;
59938;SDS011;45801;51.810;19.444;2023-12-28T03:56:45;21.60;;;12.40;;
59938;SDS011;45801;51.810;19.444;2023-12-28T03:59:12;22.20;;;13.30;;
59938;SDS011;45801;51.810;19.444;2023-12-28T04:01:41;22.70;;;12.50;;
59938;SDS011;45801;51.810;19.444;2023-12-28T04:04:08;21.70;;;10.80;;
59938;SDS011;45801;51.810;19.444;2023-12-28T04:06:35;21.60;;;11.90;;
59938;SDS011;45801;51.810;19.444;2023-12-28T04:09:02;21.50;;;11.70;;
59938;SDS011;45801;51.810;19.444;2023-12-28T04:11:28;23.20;;;12.30;;
59938;SDS011;45801;51.810;19.444;2023-12-28T04:13:55;14.90;;;11.00;;
59938;SDS011;45801;51.810;19.444;2023-12-28T04:16:21;22.00;;;13.10;;
59938;SDS011;45801;51.810;19.444;2023-12-28T04:18:48;21.80;;;11.60;;
59938;SDS011;45801;51.810;19.444;2023-12-28T04:21:15;14.40;;;10.50;;
59938;SDS011;45801;51.810;19.444;2023-12-28T04:23:42;19.90;;;11.60;;
59938;SDS011;45801;51.810;19.444;2023-12-28T04:26:09;25.60;;;12.40;;
59938;SDS011;45801;51.810;19.444;2023-12-28T04:28:35;20.70;;;10.70;;
59938;SDS011;45801;51.810;19.444;2023-12-28T04:31:02;22.80;;;13.40;;
59938;SDS011;45801;51.810;19.444;2023-12-28T04:33:33;22.80;;;12.30;;
59938;SDS011;45801;51.810;19.444;2023-12-28T04:36:00;21.30;;;12.30;;
59938;SDS011;45801;51.810;19.444;2023-12-28T04:38:29;23.10;;;12.00;;
59938;SDS011;45801;51.810;19.444;2023-12-28T04:40:58;22.20;;;11.90;;
59938;SDS011;45801;51.810;19.444;2023-12-28T04:43:25;21.10;;;11.20;;
59938;SDS011;45801;51.810;19.444;2023-12-28T04:45:51;22.90;;;11.40;;
59938;SDS011;45801;51.810;19.444;2023-12-28T04:48:18;25.00;;;12.80;;
59938;SDS011;45801;51.810;19.444;2023-12-28T04:50:50;19.40;;;11.70;;
59938;SDS011;45801;51.810;19.444;2023-12-28T04:53:18;21.60;;;11.90;;
59938;SDS011;45801;51.810;19.444;2023-12-28T04:55:45;21.60;;;11.70;;
59938;SDS011;45801;51.810;19.444;2023-12-28T04:58:12;22.50;;;12.40;;
59938;SDS011;45801;51.810;19.444;2023-12-28T05:00:38;22.70;;;12.00;;
59938;SDS011;45801;51.810;19.444;2023-12-28T05:03:05;21.20;;;11.60;;
59938;SDS011;45801;51.810;19.444;2023-12-28T05:05:32;19.90;;;11.70;;
59938;SDS011;45801;51.810;19.444;2023-12-28T05:07:59;22.70;;;11.80;;
59938;SDS011;45801;51.810;19.444;2023-12-28T05:10:26;21.30;;;11.70;;
59938;SDS011;45801;51.810;19.444;2023-12-28T05:12:53;22.70;;;12.10;;
59938;SDS011;45801;51.810;19.444;2023-12-28T05:15:20;20.70;;;11.50;;
59938;SDS011;45801;51.810;19.444;2023-12-28T05:17:46;19.40;;;11.40;;
59938;SDS011;45801;51.810;19.444;2023-12-28T05:20:13;19.60;;;11.90;;
59938;SDS011;45801;51.810;19.444;2023-12-28T05:22:39;19.70;;;11.20;;
59938;SDS011;45801;51.810;19.444;2023-12-28T05:25:06;19.70;;;11.80;;
59938;SDS011;45801;51.810;19.444;2023-12-28T05:27:33;23.00;;;12.30;;
59938;SDS011;45801;51.810;19.444;2023-12-28T05:30:01;23.20;;;11.20;;
59938;SDS011;45801;51.810;19.444;2023-12-28T05:32:28;20.30;;;11.30;;
59938;SDS011;45801;51.810;19.444;2023-12-28T05:34:54;22.30;;;11.70;;
59938;SDS011;45801;51.810;19.444;2023-12-28T05:37:21;20.60;;;11.50;;
59938;SDS011;45801;51.810;19.444;2023-12-28T05:39:47;21.40;;;11.40;;
59938;SDS011;45801;51.810;19.444;2023-12-28T05:42:14;21.40;;;11.00;;
59938;SDS011;45801;51.810;19.444;2023-12-28T05:44:41;21.90;;;12.30;;
59938;SDS011;45801;51.810;19.444;2023-12-28T05:47:07;21.90;;;12.30;;
59938;SDS011;45801;51.810;19.444;2023-12-28T05:49:34;17.80;;;10.50;;
59938;SDS011;45801;51.810;19.444;2023-12-28T05:52:00;19.80;;;10.50;;
59938;SDS011;45801;51.810;19.444;2023-12-28T05:54:27;20.30;;;10.70;;
59938;SDS011;45801;51.810;19.444;2023-12-28T05:56:53;19.40;;;11.60;;
59938;SDS011;45801;51.810;19.444;2023-12-28T05:59:20;21.90;;;10.20;;
59938;SDS011;45801;51.810;19.444;2023-12-28T06:01:48;17.70;;;10.60;;
59938;SDS011;45801;51.810;19.444;2023-12-28T06:04:15;20.30;;;10.40;;
59938;SDS011;45801;51.810;19.444;2023-12-28T06:06:41;21.40;;;11.20;;
59938;SDS011;45801;51.810;19.444;2023-12-28T06:09:08;19.00;;;10.40;;
59938;SDS011;45801;51.810;19.444;2023-12-28T06:11:34;16.70;;;10.50;;
59938;SDS011;45801;51.810;19.444;2023-12-28T06:14:01;18.10;;;9.60;;
59938;SDS011;45801;51.810;19.444;2023-12-28T06:16:28;17.20;;;11.10;;
59938;SDS011;45801;51.810;19.444;2023-12-28T06:18:58;19.00;;;10.00;;
59938;SDS011;45801;51.810;19.444;2023-12-28T06:21:26;19.60;;;10.30;;
59938;SDS011;45801;51.810;19.444;2023-12-28T06:23:52;19.10;;;10.90;;
59938;SDS011;45801;51.810;19.444;2023-12-28T06:26:19;20.50;;;11.10;;
59938;SDS011;45801;51.810;19.444;2023-12-28T06:28:45;21.80;;;10.90;;
59938;SDS011;45801;51.810;19.444;2023-12-28T06:31:12;21.30;;;11.20;;
59938;SDS011;45801;51.810;19.444;2023-12-28T06:33:39;18.40;;;11.00;;
59938;SDS011;45801;51.810;19.444;2023-12-28T06:36:06;17.20;;;9.90;;
59938;SDS011;45801;51.810;19.444;2023-12-28T06:38:32;17.60;;;9.80;;
59938;SDS011;45801;51.810;19.444;2023-12-28T06:40:59;17.50;;;9.70;;
59938;SDS011;45801;51.810;19.444;2023-12-28T06:43:26;18.10;;;9.70;;
59938;SDS011;45801;51.810;19.444;2023-12-28T06:45:53;16.30;;;9.30;;
59938;SDS011;45801;51.810;19.444;2023-12-28T06:48:19;16.40;;;8.60;;
59938;SDS011;45801;51.810;19.444;2023-12-28T06:50:46;15.60;;;9.40;;
59938;SDS011;45801;51.810;19.444;2023-12-28T06:53:12;17.30;;;8.70;;
59938;SDS011;45801;51.810;19.444;2023-12-28T06:55:39;16.00;;;9.50;;
59938;SDS011;45801;51.810;19.444;2023-12-28T06:58:05;16.80;;;9.60;;
59938;SDS011;45801;51.810;19.444;2023-12-28T07:00:34;17.40;;;9.20;;
59938;SDS011;45801;51.810;19.444;2023-12-28T07:03:01;16.00;;;9.40;;
59938;SDS011;45801;51.810;19.444;2023-12-28T07:05:27;15.50;;;8.40;;
59938;SDS011;45801;51.810;19.444;2023-12-28T07:07:54;15.60;;;8.80;;
59938;SDS011;45801;51.810;19.444;2023-12-28T07:10:21;15.50;;;9.70;;
59938;SDS011;45801;51.810;19.444;2023-12-28T07:12:47;16.40;;;9.20;;
59938;SDS011;45801;51.810;19.444;2023-12-28T07:15:14;16.60;;;8.20;;
59938;SDS011;45801;51.810;19.444;2023-12-28T07:17:41;12.40;;;7.30;;
59938;SDS011;45801;51.810;19.444;2023-12-28T07:20:08;14.50;;;7.80;;
59938;SDS011;45801;51.810;19.444;2023-12-28T07:22:38;15.80;;;7.70;;
59938;SDS011;45801;51.810;19.444;2023-12-28T07:25:05;12.20;;;6.00;;
59938;SDS011;45801;51.810;19.444;2023-12-28T07:27:33;15.50;;;8.40;;
59938;SDS011;45801;51.810;19.444;2023-12-28T07:30:00;14.30;;;7.50;;
59938;SDS011;45801;51.810;19.444;2023-12-28T07:32:28;13.00;;;7.70;;
59938;SDS011;45801;51.810;19.444;2023-12-28T07:34:55;14.00;;;7.60;;
59938;SDS011;45801;51.810;19.444;2023-12-28T07:37:22;12.30;;;6.90;;
59938;SDS011;45801;51.810;19.444;2023-12-28T07:39:48;11.60;;;6.40;;
59938;SDS011;45801;51.810;19.444;2023-12-28T07:42:15;14.10;;;7.30;;
59938;SDS011;45801;51.810;19.444;2023-12-28T07:44:42;14.10;;;7.10;;
59938;SDS011;45801;51.810;19.444;2023-12-28T07:47:09;13.80;;;8.00;;
59938;SDS011;45801;51.810;19.444;2023-12-28T07:49:36;12.10;;;5.80;;
59938;SDS011;45801;51.810;19.444;2023-12-28T07:52:02;13.10;;;7.20;;
59938;SDS011;45801;51.810;19.444;2023-12-28T07:54:29;13.00;;;7.00;;
59938;SDS011;45801;51.810;19.444;2023-12-28T07:56:56;14.00;;;7.50;;
59938;SDS011;45801;51.810;19.444;2023-12-28T07:59:22;13.00;;;6.60;;
59938;SDS011;45801;51.810;19.444;2023-12-28T08:01:49;13.70;;;7.20;;
59938;SDS011;45801;51.810;19.444;2023-12-28T08:04:16;12.40;;;7.30;;
59938;SDS011;45801;51.810;19.444;2023-12-28T08:06:43;13.80;;;8.20;;
59938;SDS011;45801;51.810;19.444;2023-12-28T08:09:10;14.70;;;7.10;;
59938;SDS011;45801;51.810;19.444;2023-12-28T08:11:36;14.50;;;7.30;;
59938;SDS011;45801;51.810;19.444;2023-12-28T08:14:03;11.70;;;6.20;;
59938;SDS011;45801;51.810;19.444;2023-12-28T08:16:31;11.70;;;6.00;;
59938;SDS011;45801;51.810;19.444;2023-12-28T08:18:58;12.40;;;7.30;;
59938;SDS011;45801;51.810;19.444;2023-12-28T08:21:24;16.80;;;10.10;;
59938;SDS011;45801;51.810;19.444;2023-12-28T08:23:50;14.40;;;7.60;;
59938;SDS011;45801;51.810;19.444;2023-12-28T08:26:18;14.40;;;6.90;;
59938;SDS011;45801;51.810;19.444;2023-12-28T08:28:44;12.60;;;6.90;;
59938;SDS011;45801;51.810;19.444;2023-12-28T08:31:11;15.20;;;6.90;;
59938;SDS011;45801;51.810;19.444;2023-12-28T08:33:38;14.80;;;7.70;;
59938;SDS011;45801;51.810;19.444;2023-12-28T08:36:07;14.00;;;7.10;;
59938;SDS011;45801;51.810;19.444;2023-12-28T08:38:34;12.70;;;6.70;;
59938;SDS011;45801;51.810;19.444;2023-12-28T08:41:00;12.40;;;6.50;;
59938;SDS011;45801;51.810;19.444;2023-12-28T08:43:29;13.40;;;7.20;;
59938;SDS011;45801;51.810;19.444;2023-12-28T08:45:56;15.50;;;6.90;;
59938;SDS011;45801;51.810;19.444;2023-12-28T08:48:22;13.70;;;6.80;;
59938;SDS011;45801;51.810;19.444;2023-12-28T08:50:49;12.00;;;6.30;;
59938;SDS011;45801;51.810;19.444;2023-12-28T08:53:17;14.80;;;6.60;;
59938;SDS011;45801;51.810;19.444;2023-12-28T08:55:43;13.00;;;7.10;;
59938;SDS011;45801;51.810;19.444;2023-12-28T08:58:10;14.90;;;6.70;;
59938;SDS011;45801;51.810;19.444;2023-12-28T09:00:36;12.60;;;6.10;;
59938;SDS011;45801;51.810;19.444;2023-12-28T09:03:04;13.60;;;6.50;;
59938;SDS011;45801;51.810;19.444;2023-12-28T09:05:30;12.90;;;6.40;;
59938;SDS011;45801;51.810;19.444;2023-12-28T09:07:57;11.80;;;6.40;;
59938;SDS011;45801;51.810;19.444;2023-12-28T09:10:24;12.50;;;6.40;;
59938;SDS011;45801;51.810;19.444;2023-12-28T09:12:50;13.60;;;6.60;;
59938;SDS011;45801;51.810;19.444;2023-12-28T09:15:17;12.50;;;6.30;;
59938;SDS011;45801;51.810;19.444;2023-12-28T09:17:44;11.20;;;6.20;;
59938;SDS011;45801;51.810;19.444;2023-12-28T09:20:11;13.90;;;7.20;;
59938;SDS011;45801;51.810;19.444;2023-12-28T09:22:38;12.10;;;6.80;;
59938;SDS011;45801;51.810;19.444;2023-12-28T09:25:04;16.00;;;7.50;;
59938;SDS011;45801;51.810;19.444;2023-12-28T09:27:31;13.50;;;7.20;;
59938;SDS011;45801;51.810;19.444;2023-12-28T09:29:58;13.40;;;7.10;;
59938;SDS011;45801;51.810;19.444;2023-12-28T09:32:24;12.40;;;6.50;;
59938;SDS011;45801;51.810;19.444;2023-12-28T09:34:51;15.40;;;7.10;;
59938;SDS011;45801;51.810;19.444;2023-12-28T09:37:17;13.00;;;7.00;;
59938;SDS011;45801;51.810;19.444;2023-12-28T09:39:44;13.80;;;6.80;;
59938;SDS011;45801;51.810;19.444;2023-12-28T09:42:22;14.50;;;8.50;;
59938;SDS011;45801;51.810;19.444;2023-12-28T09:44:53;13.60;;;6.30;;
59938;SDS011;45801;51.810;19.444;2023-12-28T09:47:20;11.70;;;6.30;;
59938;SDS011;45801;51.810;19.444;2023-12-28T09:49:46;13.60;;;7.20;;
59938;SDS011;45801;51.810;19.444;2023-12-28T09:52:14;13.10;;;7.60;;
59938;SDS011;45801;51.810;19.444;2023-12-28T09:54:41;14.60;;;6.90;;
59938;SDS011;45801;51.810;19.444;2023-12-28T09:57:07;15.20;;;7.70;;
59938;SDS011;45801;51.810;19.444;2023-12-28T09:59:36;15.40;;;7.60;;
59938;SDS011;45801;51.810;19.444;2023-12-28T10:02:04;14.90;;;7.40;;
59938;SDS011;45801;51.810;19.444;2023-12-28T10:04:31;14.00;;;6.80;;
59938;SDS011;45801;51.810;19.444;2023-12-28T10:06:57;14.50;;;6.90;;
59938;SDS011;45801;51.810;19.444;2023-12-28T10:09:24;14.50;;;7.10;;
59938;SDS011;45801;51.810;19.444;2023-12-28T10:11:53;14.10;;;6.90;;
59938;SDS011;45801;51.810;19.444;2023-12-28T10:14:20;12.40;;;7.00;;
59938;SDS011;45801;51.810;19.444;2023-12-28T10:16:47;15.20;;;7.50;;
59938;SDS011;45801;51.810;19.444;2023-12-28T10:19:14;14.70;;;7.30;;
59938;SDS011;45801;51.810;19.444;2023-12-28T10:21:41;14.10;;;7.40;;
59938;SDS011;45801;51.810;19.444;2023-12-28T10:24:07;13.20;;;7.60;;
59938;SDS011;45801;51.810;19.444;2023-12-28T10:26:36;13.90;;;6.80;;
59938;SDS011;45801;51.810;19.444;2023-12-28T10:29:03;15.50;;;7.40;;
59938;SDS011;45801;51.810;19.444;2023-12-28T10:31:30;13.60;;;7.50;;
59938;SDS011;45801;51.810;19.444;2023-12-28T10:33:59;15.90;;;7.70;;
59938;SDS011;45801;51.810;19.444;2023-12-28T10:36:29;14.50;;;7.80;;
59938;SDS011;45801;51.810;19.444;2023-12-28T10:38:56;14.30;;;7.10;;
59938;SDS011;45801;51.810;19.444;2023-12-28T10:41:25;13.50;;;7.40;;
59938;SDS011;45801;51.810;19.444;2023-12-28T10:46:30;13.50;;;7.10;;
59938;SDS011;45801;51.810;19.444;2023-12-28T10:49:05;11.30;;;5.90;;
59938;SDS011;45801;51.810;19.444;2023-12-28T10:51:36;12.40;;;6.30;;
59938;SDS011;45801;51.810;19.444;2023-12-28T10:56:59;11.80;;;5.40;;
59938;SDS011;45801;51.810;19.444;2023-12-28T10:59:43;12.60;;;5.80;;
59938;SDS011;45801;51.810;19.444;2023-12-28T11:02:19;10.60;;;5.30;;
59938;SDS011;45801;51.810;19.444;2023-12-28T11:04:51;9.90;;;4.90;;
59938;SDS011;45801;51.810;19.444;2023-12-28T11:07:20;9.00;;;4.50;;
59938;SDS011;45801;51.810;19.444;2023-12-28T11:09:47;9.20;;;4.60;;
59938;SDS011;45801;51.810;19.444;2023-12-28T11:12:15;8.30;;;4.10;;
59938;SDS011;45801;51.810;19.444;2023-12-28T11:14:45;9.10;;;4.70;;
59938;SDS011;45801;51.810;19.444;2023-12-28T11:17:11;9.20;;;4.20;;
59938;SDS011;45801;51.810;19.444;2023-12-28T11:19:41;11.50;;;4.90;;
59938;SDS011;45801;51.810;19.444;2023-12-28T11:22:11;10.80;;;4.80;;
59938;SDS011;45801;51.810;19.444;2023-12-28T11:24:40;9.90;;;4.30;;
59938;SDS011;45801;51.810;19.444;2023-12-28T11:27:06;10.00;;;4.70;;
59938;SDS011;45801;51.810;19.444;2023-12-28T11:29:35;8.30;;;4.40;;
59938;SDS011;45801;51.810;19.444;2023-12-28T11:32:01;14.50;;;5.20;;
59938;SDS011;45801;51.810;19.444;2023-12-28T11:34:28;10.10;;;5.00;;
59938;SDS011;45801;51.810;19.444;2023-12-28T11:36:56;11.30;;;5.10;;
59938;SDS011;45801;51.810;19.444;2023-12-28T11:42:00;11.00;;;5.30;;
59938;SDS011;45801;51.810;19.444;2023-12-28T11:44:29;12.60;;;5.40;;
59938;SDS011;45801;51.810;19.444;2023-12-28T11:46:57;10.00;;;5.60;;
59938;SDS011;45801;51.810;19.444;2023-12-28T11:49:27;11.30;;;5.50;;
59938;SDS011;45801;51.810;19.444;2023-12-28T11:51:57;11.10;;;5.20;;
59938;SDS011;45801;51.810;19.444;2023-12-28T11:54:24;10.50;;;5.80;;
59938;SDS011;45801;51.810;19.444;2023-12-28T11:56:53;11.20;;;5.30;;
59938;SDS011;45801;51.810;19.444;2023-12-28T11:59:19;10.60;;;4.80;;
59938;SDS011;45801;51.810;19.444;2023-12-28T12:01:52;13.00;;;5.50;;
59938;SDS011;45801;51.810;19.444;2023-12-28T12:04:22;12.80;;;6.60;;
59938;SDS011;45801;51.810;19.444;2023-12-28T12:06:49;12.50;;;6.30;;
59938;SDS011;45801;51.810;19.444;2023-12-28T12:09:16;12.10;;;6.50;;
59938;SDS011;45801;51.810;19.444;2023-12-28T12:11:48;15.50;;;7.30;;
59938;SDS011;45801;51.810;19.444;2023-12-28T12:14:15;13.80;;;7.20;;
59938;SDS011;45801;51.810;19.444;2023-12-28T12:16:42;13.30;;;6.50;;
59938;SDS011;45801;51.810;19.444;2023-12-28T12:19:08;15.30;;;7.30;;
59938;SDS011;45801;51.810;19.444;2023-12-28T12:21:35;14.80;;;7.10;;
59938;SDS011;45801;51.810;19.444;2023-12-28T12:24:02;15.20;;;7.70;;
59938;SDS011;45801;51.810;19.444;2023-12-28T12:26:29;13.70;;;7.30;;
59938;SDS011;45801;51.810;19.444;2023-12-28T12:28:58;15.20;;;7.70;;
59938;SDS011;45801;51.810;19.444;2023-12-28T12:31:25;14.30;;;8.00;;
59938;SDS011;45801;51.810;19.444;2023-12-28T12:33:52;14.90;;;7.40;;
59938;SDS011;45801;51.810;19.444;2023-12-28T12:36:19;15.40;;;7.70;;
59938;SDS011;45801;51.810;19.444;2023-12-28T12:38:48;13.90;;;7.50;;
59938;SDS011;45801;51.810;19.444;2023-12-28T12:41:14;14.20;;;7.60;;
59938;SDS011;45801;51.810;19.444;2023-12-28T12:43:41;15.20;;;7.30;;
59938;SDS011;45801;51.810;19.444;2023-12-28T12:46:08;14.20;;;8.40;;
59938;SDS011;45801;51.810;19.444;2023-12-28T12:48:34;14.70;;;7.40;;
59938;SDS011;45801;51.810;19.444;2023-12-28T12:51:02;14.20;;;8.30;;
59938;SDS011;45801;51.810;19.444;2023-12-28T12:53:33;13.00;;;7.40;;
59938;SDS011;45801;51.810;19.444;2023-12-28T12:56:01;12.70;;;6.20;;
59938;SDS011;45801;51.810;19.444;2023-12-28T12:58:30;14.10;;;6.70;;
59938;SDS011;45801;51.810;19.444;2023-12-28T13:00:57;12.70;;;5.90;;
59938;SDS011;45801;51.810;19.444;2023-12-28T13:03:27;17.20;;;7.80;;
59938;SDS011;45801;51.810;19.444;2023-12-28T13:05:56;14.10;;;7.50;;
59938;SDS011;45801;51.810;19.444;2023-12-28T13:08:23;16.20;;;7.70;;
59938;SDS011;45801;51.810;19.444;2023-12-28T13:10:50;15.50;;;7.80;;
59938;SDS011;45801;51.810;19.444;2023-12-28T13:13:17;15.70;;;7.90;;
59938;SDS011;45801;51.810;19.444;2023-12-28T13:15:44;14.20;;;7.40;;
59938;SDS011;45801;51.810;19.444;2023-12-28T13:18:11;14.80;;;8.50;;
59938;SDS011;45801;51.810;19.444;2023-12-28T13:20:38;16.60;;;7.90;;
59938;SDS011;45801;51.810;19.444;2023-12-28T13:23:05;14.60;;;7.80;;
59938;SDS011;45801;51.810;19.444;2023-12-28T13:25:37;18.50;;;8.80;;
59938;SDS011;45801;51.810;19.444;2023-12-28T13:28:04;15.80;;;7.20;;
59938;SDS011;45801;51.810;19.444;2023-12-28T13:30:30;17.60;;;8.20;;
59938;SDS011;45801;51.810;19.444;2023-12-28T13:32:58;17.00;;;7.70;;
59938;SDS011;45801;51.810;19.444;2023-12-28T13:35:25;17.40;;;9.00;;
59938;SDS011;45801;51.810;19.444;2023-12-28T13:37:51;14.90;;;7.90;;
59938;SDS011;45801;51.810;19.444;2023-12-28T13:40:18;17.00;;;8.50;;
59938;SDS011;45801;51.810;19.444;2023-12-28T13:42:45;16.50;;;8.30;;
59938;SDS011;45801;51.810;19.444;2023-12-28T13:45:11;16.10;;;8.50;;
59938;SDS011;45801;51.810;19.444;2023-12-28T13:47:38;17.00;;;8.30;;
59938;SDS011;45801;51.810;19.444;2023-12-28T13:50:05;14.90;;;8.30;;
59938;SDS011;45801;51.810;19.444;2023-12-28T13:52:32;15.60;;;8.10;;
59938;SDS011;45801;51.810;19.444;2023-12-28T13:54:59;16.80;;;8.40;;
59938;SDS011;45801;51.810;19.444;2023-12-28T13:57:25;14.60;;;7.40;;
59938;SDS011;45801;51.810;19.444;2023-12-28T13:59:52;16.90;;;7.70;;
59938;SDS011;45801;51.810;19.444;2023-12-28T14:02:19;19.50;;;8.90;;
59938;SDS011;45801;51.810;19.444;2023-12-28T14:04:47;16.90;;;9.00;;
59938;SDS011;45801;51.810;19.444;2023-12-28T14:07:14;17.50;;;9.00;;
59938;SDS011;45801;51.810;19.444;2023-12-28T14:09:41;19.00;;;13.10;;
59938;SDS011;45801;51.810;19.444;2023-12-28T14:12:07;17.00;;;10.10;;
59938;SDS011;45801;51.810;19.444;2023-12-28T14:14:34;16.20;;;9.80;;
59938;SDS011;45801;51.810;19.444;2023-12-28T14:17:07;15.40;;;10.40;;
59938;SDS011;45801;51.810;19.444;2023-12-28T14:19:34;20.90;;;13.40;;
59938;SDS011;45801;51.810;19.444;2023-12-28T14:22:01;17.80;;;13.50;;
59938;SDS011;45801;51.810;19.444;2023-12-28T14:24:28;15.80;;;8.50;;
59938;SDS011;45801;51.810;19.444;2023-12-28T14:26:55;13.90;;;7.90;;
59938;SDS011;45801;51.810;19.444;2023-12-28T14:29:22;14.00;;;7.30;;
59938;SDS011;45801;51.810;19.444;2023-12-28T14:31:49;13.80;;;7.60;;